Time;durP1;ratioP1;P1;durP2;ratioP2;P2;SDS_P1;SDS_P2;PMS_P1;PMS_P2;Temp;Humidity;BMP_temperature;BMP_pressure;BME280_temperature;BME280_humidity;BME280_pressure;Samples;Min_cycle;Max_cycle;Signal;HPM_P1;HPM_P2
2023/03/04 00:00:28;;;;;;;70.90;23.05;;;;;;;;;;5041184;28;20078;-58
2023/03/04 00:02:54;;;;;;;69.13;23.63;;;;;;;;;;5034718;28;20120;-61
2023/03/04 00:05:21;;;;;;;59.85;24.10;;;;;;;;;;5039589;28;20044;-57
2023/03/04 00:07:47;;;;;;;101.22;25.13;;;;;;;;;;5040545;28;20041;-58
2023/03/04 00:10:14;;;;;;;73.47;24.13;;;;;;;;;;5038624;28;20049;-57
2023/03/04 00:12:40;;;;;;;64.45;21.08;;;;;;;;;;5032739;28;20490;-56
2023/03/04 00:15:08;;;;;;;74.40;23.85;;;;;;;;;;5041172;28;20533;-59
2023/03/04 00:17:34;;;;;;;63.63;22.65;;;;;;;;;;5039642;28;20570;-58
2023/03/04 00:20:01;;;;;;;50.97;20.15;;;;;;;;;;5037085;28;20524;-58
2023/03/04 00:22:27;;;;;;;80.20;22.58;;;;;;;;;;5039096;28;20051;-60
2023/03/04 00:24:56;;;;;;;47.05;20.52;;;;;;;;;;5038221;28;20049;-59
2023/03/04 00:27:22;;;;;;;55.40;21.65;;;;;;;;;;5039599;28;20040;-60
2023/03/04 00:29:49;;;;;;;74.75;22.33;;;;;;;;;;5041582;28;20048;-59
2023/03/04 00:32:17;;;;;;;83.97;24.92;;;;;;;;;;5037165;28;20456;-56
2023/03/04 00:34:43;;;;;;;69.60;21.45;;;;;;;;;;5036896;28;20037;-60
2023/03/04 00:37:10;;;;;;;71.63;21.95;;;;;;;;;;5033820;28;20050;-59
2023/03/04 00:39:36;;;;;;;66.40;21.83;;;;;;;;;;5040322;28;20052;-59
2023/03/04 00:42:03;;;;;;;52.40;21.98;;;;;;;;;;5036332;28;20045;-60
2023/03/04 00:44:29;;;;;;;77.72;22.95;;;;;;;;;;5034939;28;20525;-59
2023/03/04 00:46:56;;;;;;;88.78;23.75;;;;;;;;;;5041006;28;20037;-56
2023/03/04 00:49:22;;;;;;;73.03;23.00;;;;;;;;;;5038949;28;20080;-56
2023/03/04 00:51:49;;;;;;;75.57;23.30;;;;;;;;;;5038316;28;20075;-58
2023/03/04 00:54:15;;;;;;;74.72;23.80;;;;;;;;;;5038966;28;20103;-56
2023/03/04 00:56:42;;;;;;;71.22;22.52;;;;;;;;;;5038320;28;20413;-59
2023/03/04 00:59:08;;;;;;;67.63;21.38;;;;;;;;;;5038352;28;20041;-59
2023/03/04 01:01:35;;;;;;;57.38;20.10;;;;;;;;;;5038907;28;20123;-57
2023/03/04 01:04:02;;;;;;;62.53;22.15;;;;;;;;;;5042966;28;20049;-60
2023/03/04 01:06:28;;;;;;;71.97;24.30;;;;;;;;;;5038586;28;20132;-58
2023/03/04 01:08:55;;;;;;;57.47;21.08;;;;;;;;;;5035595;28;20049;-58
2023/03/04 01:11:21;;;;;;;57.10;21.00;;;;;;;;;;5041119;28;20045;-58
2023/03/04 01:13:48;;;;;;;72.13;22.45;;;;;;;;;;5033704;28;20038;-60
2023/03/04 01:16:14;;;;;;;78.38;23.85;;;;;;;;;;5037995;28;20041;-60
2023/03/04 01:18:41;;;;;;;63.97;22.30;;;;;;;;;;5035148;28;20647;-59
2023/03/04 01:21:07;;;;;;;74.93;22.63;;;;;;;;;;5038696;28;20366;-57
2023/03/04 01:23:34;;;;;;;82.93;22.88;;;;;;;;;;5036529;28;20056;-60
2023/03/04 01:26:01;;;;;;;65.93;22.00;;;;;;;;;;5038107;28;20047;-59
2023/03/04 01:28:27;;;;;;;67.82;21.52;;;;;;;;;;5036658;28;20512;-56
2023/03/04 01:30:54;;;;;;;81.75;24.20;;;;;;;;;;5043006;28;20045;-60
2023/03/04 01:33:22;;;;;;;63.85;22.52;;;;;;;;;;5054320;28;20041;-61
2023/03/04 01:35:48;;;;;;;66.47;22.30;;;;;;;;;;5037950;28;20045;-58
2023/03/04 01:38:15;;;;;;;92.07;24.20;;;;;;;;;;5037913;28;20044;-60
2023/03/04 01:40:41;;;;;;;82.47;23.20;;;;;;;;;;5038952;28;20513;-58
2023/03/04 01:43:11;;;;;;;64.63;22.48;;;;;;;;;;5040755;28;20041;-58
2023/03/04 01:45:38;;;;;;;75.38;22.80;;;;;;;;;;5043824;28;20060;-57
2023/03/04 01:48:08;;;;;;;57.63;20.48;;;;;;;;;;5042291;28;20033;-60
2023/03/04 01:50:35;;;;;;;66.78;21.45;;;;;;;;;;5038579;28;20040;-57
2023/03/04 01:53:02;;;;;;;52.38;20.60;;;;;;;;;;5044719;28;20053;-59
2023/03/04 01:55:28;;;;;;;78.07;22.63;;;;;;;;;;5042149;28;20044;-56
2023/03/04 01:57:56;;;;;;;61.92;20.55;;;;;;;;;;5041376;28;20585;-58
2023/03/04 02:00:30;;;;;;;72.35;20.33;;;;;;;;;;5044906;28;20050;-61
2023/03/04 02:02:58;;;;;;;56.10;21.30;;;;;;;;;;5040821;28;20034;-55
2023/03/04 02:05:25;;;;;;;67.85;22.17;;;;;;;;;;5039285;28;20040;-55
2023/03/04 02:07:54;;;;;;;66.57;23.33;;;;;;;;;;5041927;28;20041;-60
2023/03/04 02:10:20;;;;;;;75.60;23.45;;;;;;;;;;5039998;28;20116;-59
2023/03/04 02:12:47;;;;;;;77.22;21.05;;;;;;;;;;5039860;28;20048;-59
2023/03/04 02:15:14;;;;;;;52.92;20.73;;;;;;;;;;5040191;28;20072;-60
2023/03/04 02:17:40;;;;;;;65.47;20.40;;;;;;;;;;5040711;28;20045;-58
2023/03/04 02:20:16;;;;;;;71.25;21.45;;;;;;;;;;5039397;28;20098;-60
2023/03/04 02:22:48;;;;;;;70.25;20.65;;;;;;;;;;5056221;28;20069;-58
2023/03/04 02:25:20;;;;;;;77.10;24.13;;;;;;;;;;5052047;28;20103;-58
2023/03/04 02:27:47;;;;;;;64.43;20.85;;;;;;;;;;5055904;28;20056;-59
2023/03/04 02:30:13;;;;;;;75.80;21.42;;;;;;;;;;5041884;28;20440;-58
2023/03/04 02:32:40;;;;;;;63.67;20.85;;;;;;;;;;5037224;28;20042;-61
2023/03/04 02:35:12;;;;;;;69.80;20.95;;;;;;;;;;5041194;28;20737;-58
2023/03/04 02:37:40;;;;;;;61.65;21.42;;;;;;;;;;5040408;28;20068;-61
2023/03/04 02:40:12;;;;;;;73.78;20.75;;;;;;;;;;5040541;28;20572;-59
2023/03/04 02:42:39;;;;;;;65.88;20.23;;;;;;;;;;5042436;28;20124;-61
2023/03/04 02:45:05;;;;;;;51.53;17.95;;;;;;;;;;5040372;28;20056;-59
2023/03/04 02:47:33;;;;;;;68.90;20.60;;;;;;;;;;5040610;28;20137;-58
2023/03/04 02:49:59;;;;;;;66.60;21.88;;;;;;;;;;5043286;28;20436;-59
2023/03/04 02:52:26;;;;;;;75.55;21.60;;;;;;;;;;5041376;28;20060;-59
2023/03/04 02:54:52;;;;;;;65.30;19.95;;;;;;;;;;5035758;28;20137;-60
2023/03/04 02:57:19;;;;;;;68.22;19.92;;;;;;;;;;5054165;28;20045;-59
2023/03/04 02:59:50;;;;;;;68.05;20.83;;;;;;;;;;5041544;28;20055;-60
2023/03/04 03:02:20;;;;;;;80.85;21.70;;;;;;;;;;5040387;28;20160;-58
2023/03/04 03:04:47;;;;;;;71.82;21.95;;;;;;;;;;5053070;28;20100;-56
2023/03/04 03:07:16;;;;;;;78.82;23.33;;;;;;;;;;5035947;28;20048;-55
2023/03/04 03:09:43;;;;;;;69.93;20.88;;;;;;;;;;5041428;28;20052;-59
2023/03/04 03:12:09;;;;;;;71.32;21.48;;;;;;;;;;5037409;28;20042;-59
2023/03/04 03:14:36;;;;;;;63.63;22.25;;;;;;;;;;5040736;28;20033;-60
2023/03/04 03:17:03;;;;;;;57.30;21.48;;;;;;;;;;5040674;28;20045;-59
2023/03/04 03:19:30;;;;;;;70.25;22.17;;;;;;;;;;5038691;28;20102;-58
2023/03/04 03:21:58;;;;;;;57.60;21.55;;;;;;;;;;5040822;28;20037;-60
2023/03/04 03:24:25;;;;;;;76.47;22.55;;;;;;;;;;5040476;28;20418;-56
2023/03/04 03:26:52;;;;;;;58.42;20.52;;;;;;;;;;5039412;28;20033;-60
2023/03/04 03:29:18;;;;;;;62.03;20.88;;;;;;;;;;5040104;28;20095;-60
2023/03/04 03:31:44;;;;;;;98.43;24.63;;;;;;;;;;5036723;28;20056;-59
2023/03/04 03:34:11;;;;;;;80.00;22.95;;;;;;;;;;5042141;28;20411;-57
2023/03/04 03:36:37;;;;;;;61.83;21.92;;;;;;;;;;5039043;28;20045;-57
2023/03/04 03:39:04;;;;;;;75.80;21.65;;;;;;;;;;5038564;28;20406;-55
2023/03/04 03:41:31;;;;;;;57.15;22.27;;;;;;;;;;5042008;28;20482;-60
2023/03/04 03:43:57;;;;;;;72.28;22.83;;;;;;;;;;5041521;28;20044;-60
2023/03/04 03:46:23;;;;;;;84.90;23.70;;;;;;;;;;5039787;28;20044;-60
2023/03/04 03:48:50;;;;;;;67.45;22.15;;;;;;;;;;5038675;28;20047;-59
2023/03/04 03:51:16;;;;;;;65.00;21.25;;;;;;;;;;5039935;28;20053;-59
2023/03/04 03:53:43;;;;;;;78.05;23.38;;;;;;;;;;5039071;28;20041;-59
2023/03/04 03:56:09;;;;;;;65.40;23.50;;;;;;;;;;5040097;28;20034;-59
2023/03/04 03:58:36;;;;;;;65.65;21.63;;;;;;;;;;5039830;28;20056;-58
2023/03/04 04:01:02;;;;;;;58.22;22.15;;;;;;;;;;5040795;28;20092;-60
2023/03/04 04:03:29;;;;;;;61.13;21.05;;;;;;;;;;5037322;28;20041;-60
2023/03/04 04:05:56;;;;;;;58.25;22.35;;;;;;;;;;5039987;28;20112;-60
2023/03/04 04:08:22;;;;;;;61.28;22.27;;;;;;;;;;5040838;28;20596;-60
2023/03/04 04:10:49;;;;;;;62.63;21.17;;;;;;;;;;5039705;28;20429;-58
2023/03/04 04:13:15;;;;;;;64.00;21.35;;;;;;;;;;5037808;28;20045;-57
2023/03/04 04:15:42;;;;;;;76.97;24.77;;;;;;;;;;5041244;28;20037;-58
2023/03/04 04:18:08;;;;;;;66.72;22.13;;;;;;;;;;5039301;28;20045;-59
2023/03/04 04:20:35;;;;;;;59.50;21.55;;;;;;;;;;5036878;28;20099;-58
2023/03/04 04:23:02;;;;;;;61.70;22.05;;;;;;;;;;5041809;28;20041;-58
2023/03/04 04:25:28;;;;;;;90.88;23.92;;;;;;;;;;5038942;28;20044;-60
2023/03/04 04:27:55;;;;;;;58.83;22.15;;;;;;;;;;5039715;28;20045;-58
2023/03/04 04:30:21;;;;;;;59.75;22.63;;;;;;;;;;5039492;28;20515;-58
2023/03/04 04:32:48;;;;;;;88.20;25.80;;;;;;;;;;5036131;28;20116;-58
2023/03/04 04:35:14;;;;;;;70.82;23.70;;;;;;;;;;5036533;28;20037;-58
2023/03/04 04:37:41;;;;;;;61.72;22.80;;;;;;;;;;5039734;28;20406;-60
2023/03/04 04:40:08;;;;;;;78.85;24.40;;;;;;;;;;5040819;28;20048;-58
2023/03/04 04:42:34;;;;;;;56.58;21.35;;;;;;;;;;5039107;28;20123;-59
2023/03/04 04:45:01;;;;;;;57.15;21.45;;;;;;;;;;5037149;28;20590;-58
2023/03/04 04:47:27;;;;;;;65.28;21.00;;;;;;;;;;5041284;28;20577;-60
2023/03/04 04:49:54;;;;;;;68.50;22.48;;;;;;;;;;5037068;28;20042;-60
2023/03/04 04:52:20;;;;;;;67.57;21.48;;;;;;;;;;5038588;28;20053;-59
2023/03/04 04:54:47;;;;;;;81.20;22.98;;;;;;;;;;5035914;28;20041;-58
2023/03/04 04:57:13;;;;;;;54.70;20.88;;;;;;;;;;5040881;28;20128;-60
2023/03/04 04:59:39;;;;;;;64.70;22.35;;;;;;;;;;5039268;28;20045;-59
2023/03/04 05:02:06;;;;;;;66.05;22.92;;;;;;;;;;5038738;28;20041;-60
2023/03/04 05:04:33;;;;;;;72.05;23.88;;;;;;;;;;5039801;28;20053;-60
2023/03/04 05:06:59;;;;;;;52.55;19.83;;;;;;;;;;5040278;28;20486;-59
2023/03/04 05:09:26;;;;;;;55.95;21.85;;;;;;;;;;5036816;28;20041;-60
2023/03/04 05:11:52;;;;;;;63.78;21.52;;;;;;;;;;5041135;28;20041;-56
2023/03/04 05:14:18;;;;;;;79.57;28.27;;;;;;;;;;5034895;28;20044;-60
2023/03/04 05:16:45;;;;;;;58.75;21.58;;;;;;;;;;5043663;28;20057;-58
2023/03/04 05:19:11;;;;;;;63.25;21.30;;;;;;;;;;5044857;28;20545;-60
2023/03/04 05:21:38;;;;;;;47.95;19.55;;;;;;;;;;5047894;28;20083;-60
2023/03/04 05:24:05;;;;;;;53.40;18.95;;;;;;;;;;5043899;28;20807;-60
2023/03/04 05:26:31;;;;;;;71.45;21.60;;;;;;;;;;5043982;28;20806;-62
2023/03/04 05:28:57;;;;;;;47.80;21.13;;;;;;;;;;5046978;28;20044;-60
2023/03/04 05:31:24;;;;;;;61.53;20.48;;;;;;;;;;5045516;28;20045;-60
2023/03/04 05:33:50;;;;;;;70.70;22.50;;;;;;;;;;5045078;28;20065;-60
2023/03/04 05:36:17;;;;;;;60.05;22.20;;;;;;;;;;5038933;28;20041;-61
2023/03/04 05:38:43;;;;;;;62.10;21.75;;;;;;;;;;5046048;28;20044;-60
2023/03/04 05:41:10;;;;;;;60.88;19.73;;;;;;;;;;5045978;28;20842;-61
2023/03/04 05:43:41;;;;;;;53.35;19.83;;;;;;;;;;5045224;28;20065;-62
2023/03/04 05:46:10;;;;;;;64.47;20.33;;;;;;;;;;5043912;28;20053;-60
2023/03/04 05:48:37;;;;;;;55.95;20.00;;;;;;;;;;5046321;28;20056;-60
2023/03/04 05:51:03;;;;;;;46.17;18.13;;;;;;;;;;5043687;28;20037;-62
2023/03/04 05:53:30;;;;;;;49.10;18.10;;;;;;;;;;5047187;28;20044;-60
2023/03/04 05:55:58;;;;;;;74.93;21.50;;;;;;;;;;5045606;28;20047;-61
2023/03/04 05:58:25;;;;;;;72.35;19.63;;;;;;;;;;5043955;28;20075;-59
2023/03/04 06:00:51;;;;;;;49.22;17.08;;;;;;;;;;5043803;28;20117;-61
2023/03/04 06:03:19;;;;;;;58.55;19.05;;;;;;;;;;5048970;28;20396;-62
2023/03/04 06:05:46;;;;;;;76.03;20.80;;;;;;;;;;5044527;28;20048;-61
2023/03/04 06:08:13;;;;;;;56.88;18.83;;;;;;;;;;5043699;28;20033;-62
2023/03/04 06:10:40;;;;;;;72.70;19.88;;;;;;;;;;5044020;28;20048;-62
2023/03/04 06:13:07;;;;;;;49.92;17.20;;;;;;;;;;5042612;28;20497;-60
2023/03/04 06:15:33;;;;;;;53.00;18.45;;;;;;;;;;5044801;28;20488;-60
2023/03/04 06:18:00;;;;;;;67.82;18.67;;;;;;;;;;5044576;28;20053;-61
2023/03/04 06:20:26;;;;;;;61.95;18.65;;;;;;;;;;5045303;28;20041;-62
2023/03/04 06:22:53;;;;;;;46.33;16.35;;;;;;;;;;5045512;28;20040;-59
2023/03/04 06:25:19;;;;;;;69.70;17.73;;;;;;;;;;5043322;28;20110;-60
2023/03/04 06:27:45;;;;;;;64.28;18.60;;;;;;;;;;5045997;28;20486;-60
2023/03/04 06:30:13;;;;;;;69.10;18.17;;;;;;;;;;5042510;28;20120;-59
2023/03/04 06:32:46;;;;;;;66.15;18.98;;;;;;;;;;5037499;28;20044;-62
2023/03/04 06:35:14;;;;;;;46.40;16.63;;;;;;;;;;5044142;28;20043;-62
2023/03/04 06:37:41;;;;;;;55.08;16.90;;;;;;;;;;5042216;28;20816;-60
2023/03/04 06:40:08;;;;;;;61.30;18.05;;;;;;;;;;5041723;28;20045;-62
2023/03/04 06:42:35;;;;;;;46.25;16.92;;;;;;;;;;5039128;28;20658;-62
2023/03/04 06:45:02;;;;;;;38.60;16.10;;;;;;;;;;5042866;28;20038;-61
2023/03/04 06:47:29;;;;;;;57.38;17.15;;;;;;;;;;5045922;28;20032;-60
2023/03/04 06:49:55;;;;;;;47.92;16.05;;;;;;;;;;5039556;28;20037;-59
2023/03/04 06:52:22;;;;;;;57.38;18.10;;;;;;;;;;5040043;28;20065;-59
2023/03/04 06:54:48;;;;;;;65.43;19.15;;;;;;;;;;5041887;28;20422;-59
2023/03/04 06:57:15;;;;;;;49.15;16.13;;;;;;;;;;5041298;28;20478;-62
2023/03/04 06:59:41;;;;;;;58.15;16.00;;;;;;;;;;5043334;28;20414;-59
2023/03/04 07:02:11;;;;;;;59.75;17.42;;;;;;;;;;5040589;28;20052;-61
2023/03/04 07:04:38;;;;;;;51.58;16.92;;;;;;;;;;5037630;28;20102;-57
2023/03/04 07:07:04;;;;;;;46.22;15.43;;;;;;;;;;5040365;28;20431;-59
2023/03/04 07:09:31;;;;;;;56.35;15.90;;;;;;;;;;5041755;28;20045;-58
2023/03/04 07:11:57;;;;;;;38.67;14.98;;;;;;;;;;5038046;28;20084;-58
2023/03/04 07:14:24;;;;;;;53.22;16.95;;;;;;;;;;5033984;28;20037;-57
2023/03/04 07:16:51;;;;;;;65.03;18.10;;;;;;;;;;5041035;28;20053;-56
2023/03/04 07:19:17;;;;;;;67.28;17.73;;;;;;;;;;5041135;28;20107;-57
2023/03/04 07:21:44;;;;;;;43.00;15.18;;;;;;;;;;5041404;28;20096;-62
2023/03/04 07:24:10;;;;;;;74.85;19.08;;;;;;;;;;5039992;28;20132;-58
2023/03/04 07:26:37;;;;;;;50.20;16.92;;;;;;;;;;5043865;28;20052;-58
2023/03/04 07:29:04;;;;;;;54.45;16.27;;;;;;;;;;5040921;28;20044;-58
2023/03/04 07:31:31;;;;;;;73.47;17.88;;;;;;;;;;5039424;28;20112;-57
2023/03/04 07:34:00;;;;;;;46.45;16.05;;;;;;;;;;5037000;28;20433;-59
2023/03/04 07:36:27;;;;;;;42.83;15.10;;;;;;;;;;5041519;28;20048;-59
2023/03/04 07:38:56;;;;;;;64.10;17.73;;;;;;;;;;5036971;28;20041;-60
2023/03/04 07:41:23;;;;;;;54.08;16.77;;;;;;;;;;5042429;28;20875;-58
2023/03/04 07:43:50;;;;;;;42.97;15.43;;;;;;;;;;5041572;28;20033;-56
2023/03/04 07:46:16;;;;;;;66.05;16.13;;;;;;;;;;5040191;28;20047;-59
2023/03/04 07:48:43;;;;;;;48.83;15.35;;;;;;;;;;5036362;28;20045;-60
2023/03/04 07:51:10;;;;;;;54.40;17.02;;;;;;;;;;5041934;28;20405;-59
2023/03/04 07:53:37;;;;;;;73.15;17.25;;;;;;;;;;5040983;28;20379;-57
2023/03/04 07:56:04;;;;;;;44.70;15.60;;;;;;;;;;5037215;28;20041;-58
2023/03/04 07:58:31;;;;;;;57.03;18.33;;;;;;;;;;5039206;28;20053;-58
2023/03/04 08:00:58;;;;;;;76.38;18.42;;;;;;;;;;5039329;28;20040;-58
2023/03/04 08:03:24;;;;;;;59.97;17.23;;;;;;;;;;5040922;28;20041;-58
2023/03/04 08:05:51;;;;;;;50.40;14.93;;;;;;;;;;5039097;28;20047;-58
2023/03/04 08:08:19;;;;;;;68.50;16.75;;;;;;;;;;5038346;28;20158;-59
2023/03/04 08:10:46;;;;;;;59.35;16.48;;;;;;;;;;5039410;28;20041;-60
2023/03/04 08:13:12;;;;;;;48.05;15.02;;;;;;;;;;5034485;28;20045;-59
2023/03/04 08:15:40;;;;;;;60.40;17.48;;;;;;;;;;5040989;28;20044;-59
2023/03/04 08:18:07;;;;;;;46.88;15.60;;;;;;;;;;5034257;28;20091;-59
2023/03/04 08:20:33;;;;;;;51.30;15.48;;;;;;;;;;5038207;28;20482;-58
2023/03/04 08:23:00;;;;;;;55.20;16.95;;;;;;;;;;5041060;28;20041;-59
2023/03/04 08:25:26;;;;;;;56.33;16.38;;;;;;;;;;5038871;28;20041;-57
2023/03/04 08:27:53;;;;;;;38.28;14.85;;;;;;;;;;5037461;28;20542;-59
2023/03/04 08:30:19;;;;;;;59.65;16.13;;;;;;;;;;5038073;28;20068;-59
2023/03/04 08:32:46;;;;;;;62.45;16.75;;;;;;;;;;5040325;28;20599;-59
2023/03/04 08:35:12;;;;;;;45.22;15.13;;;;;;;;;;5037535;28;20650;-60
2023/03/04 08:37:39;;;;;;;46.55;14.13;;;;;;;;;;5038250;28;20446;-59
2023/03/04 08:40:05;;;;;;;46.70;15.02;;;;;;;;;;5038943;28;20057;-59
2023/03/04 08:42:32;;;;;;;39.72;14.35;;;;;;;;;;5039646;28;20071;-59
2023/03/04 08:44:58;;;;;;;42.10;14.98;;;;;;;;;;5032103;28;20577;-60
2023/03/04 08:47:25;;;;;;;59.22;16.00;;;;;;;;;;5041816;28;20037;-58
2023/03/04 08:49:51;;;;;;;51.38;17.00;;;;;;;;;;5038623;28;20037;-60
2023/03/04 08:52:18;;;;;;;59.63;17.67;;;;;;;;;;5036008;28;20773;-61
2023/03/04 08:54:44;;;;;;;64.88;17.08;;;;;;;;;;5035759;28;20048;-59
2023/03/04 08:57:10;;;;;;;53.75;14.48;;;;;;;;;;5039163;28;20135;-58
2023/03/04 08:59:37;;;;;;;58.67;17.25;;;;;;;;;;5032800;28;20430;-58
2023/03/04 09:02:04;;;;;;;72.03;17.67;;;;;;;;;;5035514;28;20635;-58
2023/03/04 09:04:30;;;;;;;55.83;14.80;;;;;;;;;;5037027;28;20056;-58
2023/03/04 09:06:57;;;;;;;43.00;13.77;;;;;;;;;;5038854;28;20053;-60
2023/03/04 09:09:23;;;;;;;116.30;21.38;;;;;;;;;;5033337;28;20106;-59
2023/03/04 09:11:50;;;;;;;62.10;16.48;;;;;;;;;;5035533;28;20033;-59
2023/03/04 09:14:16;;;;;;;66.32;17.02;;;;;;;;;;5040604;28;20408;-55
2023/03/04 09:16:43;;;;;;;80.50;20.45;;;;;;;;;;5036921;28;20037;-59
2023/03/04 09:19:10;;;;;;;52.28;15.18;;;;;;;;;;5037551;28;20076;-58
2023/03/04 09:21:36;;;;;;;57.22;15.73;;;;;;;;;;5037473;28;20502;-60
2023/03/04 09:24:03;;;;;;;63.35;17.27;;;;;;;;;;5037211;28;20100;-58
2023/03/04 09:26:29;;;;;;;48.25;13.82;;;;;;;;;;5030963;28;20038;-58
2023/03/04 09:28:57;;;;;;;64.45;18.20;;;;;;;;;;5038903;28;20040;-59
2023/03/04 09:31:24;;;;;;;73.85;18.17;;;;;;;;;;5039183;28;20045;-60
2023/03/04 09:33:51;;;;;;;56.30;19.38;;;;;;;;;;5034721;28;20049;-59
2023/03/04 09:36:18;;;;;;;62.15;19.70;;;;;;;;;;5037821;28;20477;-59
2023/03/04 09:38:45;;;;;;;62.22;17.23;;;;;;;;;;5038425;28;20053;-59
2023/03/04 09:41:20;;;;;;;51.85;15.82;;;;;;;;;;5036203;28;20485;-58
2023/03/04 09:43:47;;;;;;;63.13;17.92;;;;;;;;;;5039661;28;20107;-57
2023/03/04 09:46:16;;;;;;;71.82;17.77;;;;;;;;;;5036700;28;20061;-60
2023/03/04 09:48:46;;;;;;;54.78;16.65;;;;;;;;;;5038296;28;20045;-60
2023/03/04 09:51:22;;;;;;;50.00;15.70;;;;;;;;;;5037377;28;20069;-60
2023/03/04 09:53:57;;;;;;;53.15;15.00;;;;;;;;;;5036183;28;20037;-59
2023/03/04 09:56:24;;;;;;;42.55;16.40;;;;;;;;;;5036527;28;20067;-56
2023/03/04 09:59:08;;;;;;;69.85;17.23;;;;;;;;;;5033937;28;20056;-60
2023/03/04 10:01:44;;;;;;;69.57;17.08;;;;;;;;;;5035712;28;20148;-60
2023/03/04 10:04:14;;;;;;;80.50;20.58;;;;;;;;;;5043586;28;20044;-60
2023/03/04 10:06:41;;;;;;;57.92;19.90;;;;;;;;;;5039704;28;20515;-57
2023/03/04 10:09:13;;;;;;;53.70;16.30;;;;;;;;;;5039300;28;20050;-59
2023/03/04 10:11:39;;;;;;;50.88;14.70;;;;;;;;;;5044601;28;20038;-59
2023/03/04 10:14:14;;;;;;;49.60;14.40;;;;;;;;;;5036936;28;20045;-59
2023/03/04 10:17:01;;;;;;;102.85;18.20;;;;;;;;;;5040035;28;20394;-59
2023/03/04 10:19:46;;;;;;;49.15;13.05;;;;;;;;;;4997253;28;20058;-60
2023/03/04 10:22:21;;;;;;;46.95;15.25;;;;;;;;;;5000446;28;20153;-60
2023/03/04 10:24:47;;;;;;;50.70;14.15;;;;;;;;;;4998843;28;20050;-58
2023/03/04 10:27:15;;;;;;;74.28;15.73;;;;;;;;;;4997531;28;20146;-58
2023/03/04 10:29:42;;;;;;;46.58;13.07;;;;;;;;;;4995449;28;20969;-57
2023/03/04 10:32:26;;;;;;;58.60;15.10;;;;;;;;;;4999224;28;20042;-59
2023/03/04 10:34:53;;;;;;;52.08;15.05;;;;;;;;;;4998335;28;20133;-60
2023/03/04 10:37:19;;;;;;;50.22;14.52;;;;;;;;;;4992819;28;20046;-60
2023/03/04 10:39:48;;;;;;;85.57;17.52;;;;;;;;;;4993388;28;20050;-57
2023/03/04 10:42:15;;;;;;;62.08;15.77;;;;;;;;;;4994210;28;20080;-58
2023/03/04 10:44:43;;;;;;;64.80;16.40;;;;;;;;;;4995907;28;20094;-57
2023/03/04 10:47:13;;;;;;;66.85;16.20;;;;;;;;;;4995638;28;20046;-58
2023/03/04 10:49:59;;;;;;;56.95;15.90;;;;;;;;;;4975181;28;20953;-60
2023/03/04 10:52:30;;;;;;;79.93;19.17;;;;;;;;;;4992717;28;20073;-59
2023/03/04 10:55:02;;;;;;;58.58;17.35;;;;;;;;;;4994243;28;20046;-60
2023/03/04 10:57:34;;;;;;;51.92;16.92;;;;;;;;;;5027822;28;20083;-57
2023/03/04 11:00:20;;;;;;;60.13;17.58;;;;;;;;;;5038170;28;20482;-60
2023/03/04 11:02:47;;;;;;;79.78;19.85;;;;;;;;;;5037290;28;20041;-59
2023/03/04 11:05:14;;;;;;;61.95;18.23;;;;;;;;;;5040055;28;20033;-60
2023/03/04 11:07:44;;;;;;;65.93;18.67;;;;;;;;;;5039837;28;20049;-59
2023/03/04 11:10:23;;;;;;;90.25;20.63;;;;;;;;;;5038856;28;20503;-60
2023/03/04 11:12:59;;;;;;;50.65;16.52;;;;;;;;;;5036247;28;20045;-56
2023/03/04 11:15:27;;;;;;;62.00;17.20;;;;;;;;;;5038421;28;20689;-63
2023/03/04 11:17:55;;;;;;;68.43;18.15;;;;;;;;;;5042777;28;20041;-57
2023/03/04 11:20:32;;;;;;;62.20;18.25;;;;;;;;;;5039616;28;20045;-57
2023/03/04 11:23:03;;;;;;;80.10;20.33;;;;;;;;;;5033663;28;20117;-45
2023/03/04 11:25:32;;;;;;;57.35;18.55;;;;;;;;;;5033343;28;20473;-55
2023/03/04 11:28:05;;;;;;;58.60;19.98;;;;;;;;;;5039552;28;20048;-56
2023/03/04 11:30:33;;;;;;;79.35;20.52;;;;;;;;;;5043132;28;20033;-53
2023/03/04 11:33:05;;;;;;;63.60;19.30;;;;;;;;;;5035353;28;20115;-55
2023/03/04 11:35:41;;;;;;;64.45;20.10;;;;;;;;;;5039730;28;20061;-53
2023/03/04 11:38:14;;;;;;;62.50;18.75;;;;;;;;;;5034344;28;20052;-52
2023/03/04 11:40:52;;;;;;;76.95;22.00;;;;;;;;;;5038979;28;20589;-53
2023/03/04 11:43:24;;;;;;;54.90;18.05;;;;;;;;;;5035747;28;20038;-55
2023/03/04 11:46:01;;;;;;;71.30;19.73;;;;;;;;;;5039539;28;20525;-55
2023/03/04 11:48:44;;;;;;;46.08;19.23;;;;;;;;;;5038915;28;20045;-56
2023/03/04 11:51:27;;;;;;;56.25;19.48;;;;;;;;;;5041147;28;20524;-56
2023/03/04 11:54:01;;;;;;;62.03;19.27;;;;;;;;;;5038264;28;20045;-53
2023/03/04 11:56:34;;;;;;;56.88;17.40;;;;;;;;;;5033430;28;20037;-54
2023/03/04 11:59:01;;;;;;;56.60;18.02;;;;;;;;;;5039968;28;20132;-52
2023/03/04 12:01:34;;;;;;;66.88;18.65;;;;;;;;;;5040200;28;20139;-54
2023/03/04 12:04:01;;;;;;;76.05;18.63;;;;;;;;;;5038767;28;20125;-56
2023/03/04 12:06:46;;;;;;;59.22;19.48;;;;;;;;;;5038681;28;20088;-55
2023/03/04 12:09:31;;;;;;;78.20;21.70;;;;;;;;;;5040278;28;20725;-55
2023/03/04 12:11:58;;;;;;;63.13;21.13;;;;;;;;;;5033118;28;20049;-54
2023/03/04 12:14:33;;;;;;;81.22;21.80;;;;;;;;;;5038916;28;20124;-56
2023/03/04 12:17:19;;;;;;;62.97;21.00;;;;;;;;;;5036143;28;20041;-52
2023/03/04 12:19:53;;;;;;;92.38;22.23;;;;;;;;;;5034878;28;20034;-54
2023/03/04 12:22:32;;;;;;;61.42;18.52;;;;;;;;;;5032170;28;20048;-50
2023/03/04 12:25:05;;;;;;;84.60;22.35;;;;;;;;;;5035398;28;20041;-46
2023/03/04 12:27:38;;;;;;;61.63;19.30;;;;;;;;;;5038929;28;20047;-45
2023/03/04 12:30:08;;;;;;;59.35;18.63;;;;;;;;;;5033988;28;20052;-46
2023/03/04 12:32:38;;;;;;;50.05;16.63;;;;;;;;;;5041539;28;20033;-45
2023/03/04 12:35:23;;;;;;;57.35;19.58;;;;;;;;;;5039780;28;20041;-47
2023/03/04 12:38:08;;;;;;;50.97;16.15;;;;;;;;;;5038747;28;20455;-45
2023/03/04 12:40:37;;;;;;;62.45;17.38;;;;;;;;;;5037933;28;20052;-45
2023/03/04 12:43:22;;;;;;;48.75;16.13;;;;;;;;;;5039091;28;20041;-46
2023/03/04 12:45:51;;;;;;;69.15;19.15;;;;;;;;;;5036472;28;20588;-45
2023/03/04 12:48:24;;;;;;;67.65;17.65;;;;;;;;;;5037548;28;20049;-46
2023/03/04 12:51:09;;;;;;;63.00;18.42;;;;;;;;;;5037110;28;20484;-47
2023/03/04 12:53:55;;;;;;;69.85;18.70;;;;;;;;;;5031956;28;20209;-47
2023/03/04 12:56:25;;;;;;;61.50;17.02;;;;;;;;;;5037548;28;20437;-46
2023/03/04 12:58:52;;;;;;;61.05;16.10;;;;;;;;;;5036334;28;20041;-50
2023/03/04 13:01:31;;;;;;;56.75;17.23;;;;;;;;;;5037461;28;20291;-45
2023/03/04 13:03:57;;;;;;;65.65;16.08;;;;;;;;;;5035788;28;20084;-47
2023/03/04 13:06:30;;;;;;;70.53;17.10;;;;;;;;;;5040726;28;20038;-47
2023/03/04 13:09:01;;;;;;;39.45;13.95;;;;;;;;;;5038402;28;20075;-47
2023/03/04 13:11:27;;;;;;;48.13;15.35;;;;;;;;;;5038618;28;20047;-47
2023/03/04 13:14:16;;;;;;;61.58;15.30;;;;;;;;;;5033349;28;20049;-45
2023/03/04 13:16:43;;;;;;;56.05;16.75;;;;;;;;;;5037061;28;20691;-47
2023/03/04 13:19:29;;;;;;;61.72;16.42;;;;;;;;;;5038385;28;20056;-50
2023/03/04 13:21:55;;;;;;;68.55;17.63;;;;;;;;;;5038329;28;20055;-47
2023/03/04 13:24:40;;;;;;;65.93;17.60;;;;;;;;;;5038154;28;20494;-46
2023/03/04 13:27:25;;;;;;;88.47;18.95;;;;;;;;;;5030341;28;20046;-46
2023/03/04 13:29:52;;;;;;;60.45;17.05;;;;;;;;;;5033766;28;20047;-46
2023/03/04 13:32:35;;;;;;;86.72;17.33;;;;;;;;;;5034896;28;20041;-46
2023/03/04 13:35:01;;;;;;;42.72;11.52;;;;;;;;;;5030335;28;20038;-50
2023/03/04 13:37:28;;;;;;;82.22;20.25;;;;;;;;;;5034813;28;20041;-61
2023/03/04 13:40:14;;;;;;;65.43;14.50;;;;;;;;;;5032971;28;20045;-59
2023/03/04 13:42:41;;;;;;;49.70;11.10;;;;;;;;;;5039225;28;20083;-53
2023/03/04 13:45:28;;;;;;;33.92;8.40;;;;;;;;;;5040095;28;20049;-59
2023/03/04 13:47:55;;;;;;;31.30;8.20;;;;;;;;;;5040755;28;20523;-58
2023/03/04 13:50:23;;;;;;;46.17;9.50;;;;;;;;;;5039679;28;20053;-56
2023/03/04 13:52:50;;;;;;;43.53;8.55;;;;;;;;;;5042151;28;20104;-61
2023/03/04 13:55:29;;;;;;;46.13;8.68;;;;;;;;;;5042514;28;20037;-53
2023/03/04 13:57:56;;;;;;;44.90;8.93;;;;;;;;;;5042006;28;20040;-59
2023/03/04 14:00:22;;;;;;;39.97;8.63;;;;;;;;;;5040363;28;20569;-57
2023/03/04 14:02:49;;;;;;;69.95;10.57;;;;;;;;;;5042051;28;20045;-64
2023/03/04 14:05:15;;;;;;;30.38;8.13;;;;;;;;;;5041653;28;20076;-58
2023/03/04 14:07:42;;;;;;;71.90;11.73;;;;;;;;;;5041382;28;20047;-58
2023/03/04 14:10:11;;;;;;;57.33;11.23;;;;;;;;;;5039714;28;20049;-61
2023/03/04 14:12:46;;;;;;;33.33;8.32;;;;;;;;;;5044606;28;20036;-56
2023/03/04 14:15:12;;;;;;;44.47;8.32;;;;;;;;;;5034836;28;20112;-60
2023/03/04 14:17:43;;;;;;;40.60;7.95;;;;;;;;;;5041050;28;20049;-60
2023/03/04 14:20:28;;;;;;;57.88;8.52;;;;;;;;;;5042578;28;20042;-62
2023/03/04 14:22:55;;;;;;;50.53;7.53;;;;;;;;;;5040254;28;20041;-61
2023/03/04 14:25:24;;;;;;;27.67;5.85;;;;;;;;;;5039254;28;20041;-61
2023/03/04 14:28:01;;;;;;;59.05;8.00;;;;;;;;;;5036858;28;20045;-65